Terminal Aerodrome Forecast
Issued by NWS

Home | Current Version | Previous Version | Text Only | Print | Product List | Glossary On
Versions: 1 2 3 4 5 6 7 8 9 10 11 12 13
000
FTUS42 TJSJ 010552
TAFNCM
TAF
TNCM 010552Z 0106/0206 13012KT P6SM -RA VCSH SCT018 SCT045
      TEMPO 0118/0121 4SM RA BKN040 OVC100
     FM020000 11008KT P6SM FEW018 FEW022=

USA.gov is the U.S. government's official web portal to all federal, state and local government web resources and services.